createdAt,value
2018-05-10T00:00:15.686Z,9.7
2018-05-10T00:01:17.349Z,10.8
2018-05-10T00:02:19.005Z,9.7
2018-05-10T00:03:20.667Z,10.7
2018-05-10T00:04:22.329Z,9.9
2018-05-10T00:05:23.978Z,9.6
2018-05-10T00:06:25.629Z,9.6
2018-05-10T00:07:27.311Z,9.9
2018-05-10T00:08:28.976Z,9.4
2018-05-10T00:09:30.643Z,8.8
2018-05-10T00:10:32.298Z,9.5
2018-05-10T00:11:33.963Z,9.7
2018-05-10T00:12:35.612Z,9.7
2018-05-10T00:13:37.264Z,10.0
2018-05-10T00:14:38.925Z,10.1
2018-05-10T00:15:40.570Z,9.4
2018-05-10T00:16:42.256Z,9.0
2018-05-10T00:17:43.921Z,9.3
2018-05-10T00:18:45.567Z,9.4
2018-05-10T00:19:47.252Z,9.6
2018-05-10T00:20:48.912Z,9.5
2018-05-10T00:21:50.568Z,9.8
2018-05-10T00:22:52.228Z,9.4
2018-05-10T00:23:53.876Z,9.6
2018-05-10T00:24:55.553Z,9.2
2018-05-10T00:25:57.208Z,9.6
2018-05-10T00:26:58.856Z,9.6
2018-05-10T00:28:00.519Z,10.3
2018-05-10T00:29:02.171Z,10.9
2018-05-10T00:30:03.834Z,11.4
2018-05-10T00:31:05.487Z,11.6
2018-05-10T00:32:07.136Z,12.7
2018-05-10T00:33:08.788Z,12.0
2018-05-10T00:34:10.451Z,11.2
2018-05-10T00:35:12.102Z,10.5
2018-05-10T00:36:13.750Z,11.3
2018-05-10T00:37:15.395Z,10.1
2018-05-10T00:38:17.047Z,10.8
2018-05-10T00:39:18.699Z,10.3
2018-05-10T00:40:20.366Z,10.0
2018-05-10T00:41:22.017Z,9.9
2018-05-10T00:42:23.669Z,9.9
2018-05-10T00:43:25.329Z,9.6
2018-05-10T00:44:26.975Z,9.6
2018-05-10T00:45:28.639Z,9.7
2018-05-10T00:46:30.286Z,10.6
2018-05-10T00:47:31.940Z,9.9
2018-05-10T00:48:33.598Z,9.8
2018-05-10T00:49:35.256Z,9.7
2018-05-10T00:50:36.912Z,9.2
2018-05-10T00:51:38.571Z,10.9
2018-05-10T00:52:40.243Z,10.0
2018-05-10T00:53:41.892Z,10.4
2018-05-10T00:54:43.562Z,10.1
2018-05-10T00:55:45.215Z,10.1
2018-05-10T00:56:46.872Z,9.9
2018-05-10T00:57:48.533Z,9.9
2018-05-10T00:58:50.184Z,10.0
2018-05-10T00:59:51.849Z,10.3
2018-05-10T01:00:53.524Z,10.5
2018-05-10T01:01:55.173Z,10.4
2018-05-10T01:02:56.834Z,10.5
2018-05-10T01:03:58.484Z,10.5
2018-05-10T01:05:00.136Z,10.5
2018-05-10T01:06:01.793Z,10.1
2018-05-10T01:07:03.445Z,10.8
2018-05-10T01:08:05.114Z,10.4
2018-05-10T01:09:06.847Z,10.6
2018-05-10T01:10:08.387Z,10.8
2018-05-10T01:11:10.040Z,10.3
2018-05-10T01:12:11.698Z,9.4
2018-05-10T01:13:13.346Z,10.3
2018-05-10T01:14:15.002Z,10.4
2018-05-10T01:15:16.658Z,10.6
2018-05-10T01:16:18.315Z,10.6
2018-05-10T01:17:19.976Z,10.6
2018-05-10T01:18:21.636Z,11.4
2018-05-10T01:19:23.291Z,10.3
2018-05-10T01:20:24.935Z,10.5
2018-05-10T01:21:26.601Z,10.6
2018-05-10T01:22:28.252Z,10.3
2018-05-10T01:23:29.902Z,9.8
2018-05-10T01:24:31.563Z,11.2
2018-05-10T01:25:33.216Z,10.5
2018-05-10T01:26:34.865Z,11.3
2018-05-10T01:27:36.538Z,11.0
2018-05-10T01:28:38.188Z,11.5
2018-05-10T01:29:39.846Z,11.1
2018-05-10T01:30:41.505Z,10.8
2018-05-10T01:31:43.166Z,10.7
2018-05-10T01:32:44.819Z,10.7
2018-05-10T01:33:46.478Z,10.4
2018-05-10T01:34:48.146Z,10.4
2018-05-10T01:35:49.809Z,10.0
2018-05-10T01:36:51.457Z,10.4
2018-05-10T01:37:53.127Z,9.2
2018-05-10T01:38:54.779Z,9.9
2018-05-10T01:39:56.442Z,10.4
2018-05-10T01:40:58.097Z,10.2
2018-05-10T01:41:59.759Z,10.3
2018-05-10T01:43:01.410Z,11.1
2018-05-10T01:44:03.073Z,10.2
2018-05-10T01:45:04.728Z,10.6
2018-05-10T01:46:06.405Z,11.1
2018-05-10T01:47:08.054Z,10.6
2018-05-10T01:48:09.710Z,10.1
2018-05-10T01:49:11.373Z,10.6
2018-05-10T01:50:13.020Z,11.8
2018-05-10T01:51:14.687Z,11.7
2018-05-10T01:52:16.337Z,11.5
2018-05-10T01:53:18.001Z,10.8
2018-05-10T01:54:19.663Z,11.5
2018-05-10T01:55:21.312Z,11.9
2018-05-10T02:02:02.622Z,10.6
2018-05-10T02:03:04.280Z,12.3
2018-05-10T02:04:56.200Z,11.7
2018-05-10T02:05:57.862Z,11.4
2018-05-10T02:07:49.743Z,11.4
2018-05-10T02:08:51.399Z,11.7
2018-05-10T02:10:43.337Z,11.8
2018-05-10T02:11:45.024Z,12.2
2018-05-10T02:12:46.672Z,10.7
2018-05-10T02:13:48.333Z,11.0
2018-05-10T02:14:49.999Z,11.4
2018-05-10T02:15:51.633Z,11.5
2018-05-10T02:16:53.282Z,11.7
2018-05-10T02:17:54.934Z,11.2
2018-05-10T02:18:56.590Z,11.8
2018-05-10T02:19:58.234Z,10.5
2018-05-10T02:20:59.883Z,11.0
2018-05-10T02:22:01.535Z,11.3
2018-05-10T02:23:03.189Z,11.3
2018-05-10T02:24:04.846Z,11.6
2018-05-10T02:25:06.505Z,11.8
2018-05-10T02:26:08.167Z,11.2
2018-05-10T02:27:09.820Z,11.4
2018-05-10T02:28:11.476Z,11.3
2018-05-10T02:29:13.124Z,10.7
2018-05-10T02:30:14.783Z,10.6
2018-05-10T02:31:16.433Z,11.1
2018-05-10T02:32:18.097Z,10.5
2018-05-10T02:33:19.750Z,11.7
2018-05-10T02:34:21.407Z,10.1
2018-05-10T02:35:23.095Z,10.8
2018-05-10T02:36:24.752Z,11.5
2018-05-10T02:37:26.405Z,12.0
2018-05-10T02:38:28.059Z,12.1
2018-05-10T02:39:29.712Z,12.1
2018-05-10T02:40:31.369Z,11.5
2018-05-10T02:41:33.025Z,11.9
2018-05-10T02:42:34.670Z,11.5
2018-05-10T02:43:36.328Z,11.8
2018-05-10T02:44:37.984Z,11.4
2018-05-10T02:45:39.650Z,11.1
2018-05-10T02:46:41.309Z,11.1
2018-05-10T02:47:42.967Z,11.2
2018-05-10T02:48:44.603Z,10.9
2018-05-10T02:49:46.293Z,11.8
2018-05-10T02:50:47.980Z,11.7
2018-05-10T02:51:49.642Z,11.9
2018-05-10T02:52:51.287Z,11.7
2018-05-10T02:53:53.024Z,11.4
2018-05-10T02:54:54.673Z,12.4
2018-05-10T02:55:56.329Z,12.7
2018-05-10T02:56:57.990Z,12.1
2018-05-10T02:57:59.650Z,11.6
2018-05-10T02:59:01.303Z,11.9
2018-05-10T03:00:02.954Z,11.7
2018-05-10T03:01:04.608Z,11.9
2018-05-10T03:02:06.263Z,12.2
2018-05-10T03:03:07.933Z,11.7
2018-05-10T03:04:09.583Z,12.2
2018-05-10T03:05:11.242Z,12.3
2018-05-10T03:06:12.964Z,11.8
2018-05-10T03:07:14.547Z,11.7
2018-05-10T03:08:16.205Z,11.3
2018-05-10T03:09:17.859Z,11.6
2018-05-10T03:10:19.519Z,11.6
2018-05-10T03:11:21.170Z,11.9
2018-05-10T03:12:22.825Z,11.3
2018-05-10T03:13:24.484Z,11.6
2018-05-10T03:14:26.142Z,11.6
2018-05-10T03:15:27.787Z,12.5
2018-05-10T03:16:29.436Z,11.6
2018-05-10T03:17:31.098Z,11.7
2018-05-10T03:18:32.749Z,12.2
2018-05-10T03:19:34.408Z,12.3
2018-05-10T03:20:36.061Z,11.4
2018-05-10T03:21:37.723Z,11.8
2018-05-10T03:22:39.370Z,12.6
2018-05-10T03:23:41.024Z,12.3
2018-05-10T03:24:42.675Z,11.4
2018-05-10T03:25:44.332Z,12.2
2018-05-10T03:26:45.985Z,12.1
2018-05-10T03:27:47.669Z,13.3
2018-05-10T03:28:49.325Z,12.4
2018-05-10T03:29:50.986Z,13.0
2018-05-10T03:30:52.636Z,13.0
2018-05-10T03:31:54.289Z,13.0
2018-05-10T03:32:55.939Z,12.7
2018-05-10T03:33:57.609Z,11.7
2018-05-10T03:34:59.259Z,12.4
2018-05-10T03:36:00.919Z,12.6
2018-05-10T03:37:02.573Z,12.8
2018-05-10T03:38:04.230Z,13.5
2018-05-10T03:39:05.890Z,14.3
2018-05-10T03:40:07.551Z,13.9
2018-05-10T03:41:09.206Z,13.0
2018-05-10T03:42:10.871Z,13.5
2018-05-10T03:43:12.537Z,13.1
2018-05-10T03:44:14.191Z,13.2
2018-05-10T03:45:15.849Z,13.1
2018-05-10T03:46:17.589Z,12.9
2018-05-10T03:47:19.129Z,12.5
2018-05-10T03:48:20.793Z,12.4
2018-05-10T03:49:22.451Z,12.5
2018-05-10T03:50:24.112Z,13.0
2018-05-10T03:51:25.773Z,12.2
2018-05-10T03:52:27.436Z,13.5
2018-05-10T03:53:29.078Z,12.9
2018-05-10T03:54:30.728Z,14.2
2018-05-10T03:55:32.384Z,13.2
2018-05-10T03:56:34.055Z,13.1
2018-05-10T03:57:35.708Z,13.5
2018-05-10T03:58:37.357Z,13.8
2018-05-10T03:59:39.019Z,13.4
2018-05-10T04:00:40.684Z,14.4
2018-05-10T04:01:42.335Z,13.2
2018-05-10T04:02:43.994Z,13.4
2018-05-10T04:03:45.655Z,13.0
2018-05-10T04:04:47.332Z,13.6
2018-05-10T04:05:48.994Z,12.9
2018-05-10T04:06:50.647Z,13.9
2018-05-10T04:07:52.302Z,13.1
2018-05-10T04:08:53.953Z,13.2
2018-05-10T04:09:55.616Z,12.8
2018-05-10T04:10:57.261Z,12.9
2018-05-10T04:11:58.921Z,12.8
2018-05-10T04:13:00.584Z,12.0
2018-05-10T04:14:02.237Z,12.5
2018-05-10T04:15:03.896Z,13.0
2018-05-10T04:16:05.558Z,12.2
2018-05-10T04:17:07.215Z,11.8
2018-05-10T04:18:08.885Z,12.2
2018-05-10T04:19:10.544Z,12.0
2018-05-10T04:20:12.205Z,12.6
2018-05-10T04:21:13.865Z,12.4
2018-05-10T04:22:15.516Z,12.4
2018-05-10T04:23:17.176Z,12.6
2018-05-10T04:24:18.838Z,12.7
2018-05-10T04:25:20.505Z,12.3
2018-05-10T04:26:22.167Z,13.2
2018-05-10T04:27:23.822Z,12.8
2018-05-10T04:28:25.547Z,12.6
2018-05-10T04:29:27.207Z,12.3
2018-05-10T04:30:28.907Z,12.8
2018-05-10T04:31:30.579Z,12.5
2018-05-10T04:32:32.237Z,12.8
2018-05-10T04:33:33.895Z,11.4
2018-05-10T04:34:35.556Z,11.4
2018-05-10T04:35:37.211Z,11.9
2018-05-10T04:36:38.870Z,13.1
2018-05-10T04:37:40.524Z,12.3
2018-05-10T04:38:42.191Z,12.6
2018-05-10T04:39:43.860Z,12.0
2018-05-10T04:40:45.506Z,12.2
2018-05-10T04:41:47.198Z,12.2
2018-05-10T04:42:48.853Z,12.4
2018-05-10T04:43:50.501Z,12.2
2018-05-10T04:44:52.164Z,12.4
2018-05-10T04:45:53.821Z,12.7
2018-05-10T04:46:55.485Z,12.2
2018-05-10T04:47:57.144Z,11.7
2018-05-10T04:48:58.805Z,12.2
2018-05-10T04:50:00.460Z,13.1
2018-05-10T04:51:02.129Z,12.0
2018-05-10T04:52:03.796Z,13.1
2018-05-10T04:53:05.451Z,12.3
2018-05-10T04:54:07.110Z,12.3
2018-05-10T04:55:08.764Z,12.3
2018-05-10T04:56:10.416Z,12.3
2018-05-10T04:57:12.082Z,10.3
2018-05-10T04:58:13.736Z,9.8
2018-05-10T04:59:15.402Z,9.7
2018-05-10T05:00:17.064Z,10.4
2018-05-10T05:01:18.722Z,10.4
2018-05-10T05:02:20.371Z,10.5
2018-05-10T05:03:22.296Z,9.9
2018-05-10T05:04:23.833Z,10.3
2018-05-10T05:05:25.514Z,10.8
2018-05-10T05:06:27.181Z,10.5
2018-05-10T05:07:28.844Z,10.7
2018-05-10T05:08:30.514Z,10.6
2018-05-10T05:09:32.190Z,10.7
2018-05-10T05:10:33.857Z,10.3
2018-05-10T05:11:35.511Z,10.8
2018-05-10T05:12:37.172Z,10.6
2018-05-10T05:13:38.835Z,10.8
2018-05-10T05:14:40.503Z,10.8
2018-05-10T05:15:42.161Z,11.0
2018-05-10T05:16:43.833Z,10.5
2018-05-10T05:17:45.505Z,11.8
2018-05-10T05:18:47.196Z,12.8
2018-05-10T05:19:48.855Z,11.6
2018-05-10T05:20:50.523Z,11.4
2018-05-10T05:21:52.185Z,12.4
2018-05-10T05:22:53.850Z,12.9
2018-05-10T05:23:55.528Z,12.6
2018-05-10T05:24:57.187Z,12.5
2018-05-10T05:25:58.844Z,13.3
2018-05-10T05:27:00.510Z,13.5
2018-05-10T05:28:02.169Z,12.9
2018-05-10T05:29:03.827Z,13.9
2018-05-10T05:30:05.486Z,14.7
2018-05-10T05:31:07.153Z,14.6
2018-05-10T05:32:08.903Z,16.0
2018-05-10T05:33:10.440Z,16.7
2018-05-10T05:34:12.103Z,17.9
2018-05-10T05:35:13.762Z,18.4
2018-05-10T05:36:15.428Z,19.2
2018-05-10T05:37:17.099Z,22.1
2018-05-10T05:38:18.762Z,21.9
2018-05-10T05:39:20.425Z,21.3
2018-05-10T05:40:22.128Z,22.5
2018-05-10T05:41:23.807Z,23.3
2018-05-10T05:42:25.444Z,23.0
2018-05-10T05:43:27.182Z,23.0
2018-05-10T05:44:28.773Z,25.1
2018-05-10T05:45:30.444Z,25.9
2018-05-10T05:46:32.117Z,27.1
2018-05-10T05:47:33.781Z,27.8
2018-05-10T05:48:35.450Z,29.7
2018-05-10T05:49:37.100Z,27.9
2018-05-10T05:50:38.770Z,33.7
2018-05-10T05:51:40.436Z,29.4
2018-05-10T05:52:42.104Z,24.3
2018-05-10T05:53:43.768Z,22.0
2018-05-10T05:54:45.424Z,16.0
2018-05-10T05:55:47.080Z,16.2
2018-05-10T06:01:36.133Z,20.0
2018-05-10T06:02:37.792Z,22.7
2018-05-10T06:04:29.694Z,30.9
2018-05-10T06:05:31.356Z,32.3
2018-05-10T06:07:23.287Z,36.4
2018-05-10T06:08:24.950Z,39.8
2018-05-10T06:09:26.616Z,42.3
2018-05-10T06:10:28.281Z,55.3
2018-05-10T06:11:29.957Z,75.2
2018-05-10T06:12:31.624Z,78.2
2018-05-10T06:13:33.288Z,84.9
2018-05-10T06:14:34.954Z,90.6
2018-05-10T06:15:36.680Z,65.3
2018-05-10T06:16:38.290Z,41.0
2018-05-10T06:17:39.954Z,38.0
2018-05-10T06:18:41.621Z,32.9
2018-05-10T06:19:43.296Z,33.1
2018-05-10T06:20:45.037Z,33.8
2018-05-10T06:21:46.710Z,45.3
2018-05-10T06:22:48.368Z,63.2
2018-05-10T06:23:50.057Z,66.2
2018-05-10T06:24:51.762Z,95.4
2018-05-10T06:25:53.384Z,99.3
2018-05-10T06:26:55.056Z,97.0
2018-05-10T06:27:56.727Z,101.2
2018-05-10T06:28:58.393Z,101.1
2018-05-10T06:30:00.061Z,100.7
2018-05-10T06:31:01.727Z,101.1
2018-05-10T06:32:03.398Z,100.0
2018-05-10T06:33:05.062Z,101.9
2018-05-10T06:34:06.819Z,99.9
2018-05-10T06:35:08.390Z,99.9
2018-05-10T06:36:10.055Z,101.7
2018-05-10T06:37:11.717Z,100.8
2018-05-10T06:38:13.390Z,99.9
2018-05-10T06:39:15.058Z,99.5
2018-05-10T06:40:16.735Z,98.8
2018-05-10T06:41:18.406Z,98.9
2018-05-10T06:42:20.083Z,101.0
2018-05-10T06:43:21.751Z,97.2
2018-05-10T06:44:23.406Z,100.2
2018-05-10T06:45:25.073Z,98.0
2018-05-10T06:46:26.993Z,95.9
2018-05-10T06:47:28.660Z,99.2
2018-05-10T06:48:30.330Z,97.9
2018-05-10T06:49:31.997Z,95.7
2018-05-10T06:50:33.657Z,97.1
2018-05-10T06:51:35.324Z,96.5
2018-05-10T06:52:36.992Z,95.0
2018-05-10T06:53:38.692Z,95.0
2018-05-10T06:54:40.373Z,98.0
2018-05-10T06:55:42.023Z,94.3
2018-05-10T06:56:43.690Z,95.9
2018-05-10T06:57:45.355Z,95.9
2018-05-10T06:58:47.011Z,95.6
2018-05-10T06:59:48.664Z,95.1
2018-05-10T07:00:50.328Z,95.9
2018-05-10T07:01:51.988Z,95.5
2018-05-10T07:02:53.653Z,95.5
2018-05-10T07:03:55.327Z,94.1
2018-05-10T07:04:56.988Z,95.6
2018-05-10T07:05:58.660Z,96.0
2018-05-10T07:07:00.326Z,92.9
2018-05-10T07:08:01.981Z,93.1
2018-05-10T07:09:03.646Z,94.9
2018-05-10T07:10:05.310Z,96.6
2018-05-10T07:11:06.987Z,92.9
2018-05-10T07:12:08.655Z,90.6
2018-05-10T07:13:10.311Z,89.9
2018-05-10T07:14:11.991Z,87.3
2018-05-10T07:15:13.660Z,90.0
2018-05-10T07:16:15.338Z,88.1
2018-05-10T07:17:17.003Z,87.6
2018-05-10T07:18:18.684Z,85.1
2018-05-10T07:19:20.361Z,83.2
2018-05-10T07:20:22.034Z,86.3
2018-05-10T07:21:23.698Z,82.1
2018-05-10T07:22:25.356Z,84.9
2018-05-10T07:23:27.020Z,84.6
2018-05-10T07:24:28.678Z,82.6
2018-05-10T07:25:30.343Z,79.8
2018-05-10T07:26:32.015Z,79.4
2018-05-10T07:27:33.675Z,76.7
2018-05-10T07:28:35.373Z,76.3
2018-05-10T07:29:37.034Z,75.7
2018-05-10T07:30:38.707Z,78.0
2018-05-10T07:31:40.372Z,75.3
2018-05-10T07:32:42.040Z,75.9
2018-05-10T07:33:43.704Z,74.9
2018-05-10T07:34:45.366Z,75.0
2018-05-10T07:35:47.041Z,74.3
2018-05-10T07:36:48.704Z,75.7
2018-05-10T07:37:50.370Z,73.8
2018-05-10T07:38:52.037Z,73.6
2018-05-10T07:39:53.705Z,73.0
2018-05-10T07:40:55.584Z,74.0
2018-05-10T07:41:57.299Z,71.2
2018-05-10T07:42:58.956Z,70.7
2018-05-10T07:44:00.624Z,72.4
2018-05-10T07:45:02.285Z,68.5
2018-05-10T07:46:03.946Z,68.6
2018-05-10T07:47:05.600Z,69.5
2018-05-10T07:48:07.273Z,69.7
2018-05-10T07:49:08.944Z,68.9
2018-05-10T07:50:10.607Z,68.5
2018-05-10T07:51:12.348Z,67.3
2018-05-10T07:52:13.893Z,64.7
2018-05-10T07:53:15.570Z,62.4
2018-05-10T07:54:17.371Z,63.1
2018-05-10T07:55:19.027Z,61.6
2018-05-10T07:56:20.703Z,62.0
2018-05-10T07:57:22.442Z,62.9
2018-05-10T07:58:24.086Z,60.7
2018-05-10T07:59:25.763Z,61.5
2018-05-10T08:00:27.401Z,58.3
2018-05-10T08:01:29.063Z,60.4
2018-05-10T08:02:30.731Z,61.1
2018-05-10T08:03:32.394Z,60.1
2018-05-10T08:04:34.065Z,63.0
2018-05-10T08:05:35.726Z,59.4
2018-05-10T08:06:37.394Z,59.8
2018-05-10T08:07:39.063Z,57.4
2018-05-10T08:08:40.719Z,56.1
2018-05-10T08:09:42.384Z,55.9
2018-05-10T08:10:44.070Z,55.9
2018-05-10T08:11:45.737Z,55.2
2018-05-10T08:12:47.419Z,56.2
2018-05-10T08:13:49.080Z,53.4
2018-05-10T08:14:50.751Z,51.3
2018-05-10T08:15:52.408Z,51.7
2018-05-10T08:16:54.084Z,52.0
2018-05-10T08:17:55.750Z,51.4
2018-05-10T08:18:57.433Z,53.9
2018-05-10T08:19:59.106Z,53.4
2018-05-10T08:21:00.788Z,54.2
2018-05-10T08:22:02.435Z,58.4
2018-05-10T08:23:04.105Z,59.7
2018-05-10T08:24:05.775Z,65.0
2018-05-10T08:25:07.449Z,61.3
2018-05-10T08:26:09.114Z,63.8
2018-05-10T08:27:10.770Z,65.4
2018-05-10T08:28:12.440Z,64.3
2018-05-10T08:29:14.106Z,68.7
2018-05-10T08:30:15.828Z,65.8
2018-05-10T08:31:17.404Z,64.7
2018-05-10T08:32:19.057Z,62.1
2018-05-10T08:33:20.737Z,57.4
2018-05-10T08:34:22.398Z,55.6
2018-05-10T08:35:24.071Z,52.7
2018-05-10T08:36:25.847Z,53.7
2018-05-10T08:37:27.368Z,52.0
2018-05-10T08:38:29.181Z,53.7
2018-05-10T08:39:30.846Z,53.0
2018-05-10T08:40:32.516Z,51.0
2018-05-10T08:41:34.189Z,51.9
2018-05-10T08:42:35.912Z,51.1
2018-05-10T08:43:37.691Z,48.6
2018-05-10T08:44:39.248Z,48.1
2018-05-10T08:45:40.901Z,49.4
2018-05-10T08:46:42.572Z,49.7
2018-05-10T08:47:44.236Z,52.1
2018-05-10T08:48:45.898Z,50.7
2018-05-10T08:49:47.599Z,47.3
2018-05-10T08:50:49.264Z,48.2
2018-05-10T08:51:51.032Z,45.5
2018-05-10T08:52:52.605Z,48.3
2018-05-10T08:53:54.336Z,45.8
2018-05-10T08:54:56.005Z,45.5
2018-05-10T08:55:57.737Z,46.0
2018-05-10T08:56:59.404Z,47.3
2018-05-10T08:58:01.082Z,45.5
2018-05-10T08:59:02.736Z,44.6
2018-05-10T09:00:04.429Z,44.2
2018-05-10T09:01:06.068Z,42.0
2018-05-10T09:02:07.739Z,42.6
2018-05-10T09:03:09.409Z,43.9
2018-05-10T09:04:11.075Z,44.5
2018-05-10T09:05:12.748Z,41.7
2018-05-10T09:06:14.412Z,42.8
2018-05-10T09:07:16.078Z,43.3
2018-05-10T09:08:17.702Z,44.5
2018-05-10T09:09:19.375Z,42.2
2018-05-10T09:10:21.028Z,42.3
2018-05-10T09:11:22.714Z,40.7
2018-05-10T09:12:24.368Z,42.2
2018-05-10T09:13:26.046Z,45.3
2018-05-10T09:14:27.719Z,43.6
2018-05-10T09:15:29.376Z,44.4
2018-05-10T09:16:31.044Z,40.3
2018-05-10T09:17:32.718Z,40.7
2018-05-10T09:18:34.373Z,41.0
2018-05-10T09:19:36.042Z,38.3
2018-05-10T09:20:37.716Z,38.4
2018-05-10T09:21:39.376Z,36.9
2018-05-10T09:22:41.060Z,36.9
2018-05-10T09:23:42.718Z,35.9
2018-05-10T09:24:44.385Z,37.2
2018-05-10T09:25:46.104Z,33.9
2018-05-10T09:26:47.807Z,34.8
2018-05-10T09:27:49.470Z,34.3
2018-05-10T09:28:51.138Z,32.4
2018-05-10T09:29:52.807Z,35.1
2018-05-10T09:30:54.484Z,34.9
2018-05-10T09:31:56.148Z,33.8
2018-05-10T09:32:57.803Z,34.2
2018-05-10T09:33:59.473Z,32.6
2018-05-10T09:35:01.144Z,30.7
2018-05-10T09:36:02.816Z,29.6
2018-05-10T09:37:04.484Z,30.7
2018-05-10T09:38:06.160Z,27.9
2018-05-10T09:39:07.830Z,29.8
2018-05-10T09:40:09.483Z,30.1
2018-05-10T09:41:11.153Z,29.1
2018-05-10T09:42:12.826Z,28.9
2018-05-10T09:43:14.486Z,28.4
2018-05-10T09:44:16.151Z,29.0
2018-05-10T09:45:17.822Z,28.3
2018-05-10T09:46:19.570Z,27.0
2018-05-10T09:47:21.124Z,27.9
2018-05-10T09:48:22.787Z,27.6
2018-05-10T09:49:24.469Z,25.7
2018-05-10T09:50:26.132Z,24.3
2018-05-10T09:51:27.801Z,24.3
2018-05-10T09:52:29.463Z,23.6
2018-05-10T09:53:31.137Z,23.0
2018-05-10T09:54:32.794Z,23.7
2018-05-10T10:01:10.760Z,20.1
2018-05-10T10:02:12.429Z,20.7
2018-05-10T10:04:04.328Z,20.9
2018-05-10T10:05:05.990Z,20.8
2018-05-10T10:06:07.693Z,19.6
2018-05-10T10:07:09.321Z,19.9
2018-05-10T10:08:11.003Z,18.9
2018-05-10T10:09:12.680Z,18.8
2018-05-10T10:10:14.347Z,18.7
2018-05-10T10:11:16.034Z,18.8
2018-05-10T10:12:17.703Z,18.8
2018-05-10T10:13:19.383Z,19.5
2018-05-10T10:14:24.578Z,18.4
2018-05-10T10:15:26.076Z,18.2
2018-05-10T10:16:27.744Z,17.8
2018-05-10T10:17:29.503Z,16.6
2018-05-10T10:18:31.046Z,15.5
2018-05-10T10:19:32.730Z,15.6
2018-05-10T10:20:34.710Z,15.2
2018-05-10T10:21:36.386Z,14.5
2018-05-10T10:22:38.058Z,14.1
2018-05-10T10:23:39.728Z,14.9
2018-05-10T10:24:41.591Z,14.7
2018-05-10T10:25:43.279Z,14.7
2018-05-10T10:26:45.305Z,14.3
2018-05-10T10:27:47.252Z,13.1
2018-05-10T10:28:49.149Z,12.9
2018-05-10T10:29:50.794Z,12.6
2018-05-10T10:30:52.465Z,12.5
2018-05-10T10:31:54.136Z,11.8
2018-05-10T10:32:55.880Z,11.9
2018-05-10T10:33:57.543Z,11.8
2018-05-10T10:34:59.209Z,12.4
2018-05-10T10:36:00.881Z,13.9
2018-05-10T10:37:02.559Z,12.0
2018-05-10T10:38:04.232Z,11.7
2018-05-10T10:39:05.926Z,12.5
2018-05-10T10:40:07.686Z,11.5
2018-05-10T10:41:09.226Z,13.3
2018-05-10T10:42:10.996Z,13.4
2018-05-10T10:43:12.674Z,12.6
2018-05-10T10:44:14.351Z,12.8
2018-05-10T10:45:16.021Z,13.9
2018-05-10T10:46:17.693Z,13.5
2018-05-10T10:47:19.368Z,14.3
2018-05-10T10:48:21.045Z,14.4
2018-05-10T10:49:22.865Z,14.9
2018-05-10T10:50:24.547Z,15.7
2018-05-10T10:51:26.396Z,16.6
2018-05-10T10:52:28.078Z,15.4
2018-05-10T10:53:29.734Z,15.2
2018-05-10T10:54:31.412Z,15.7
2018-05-10T10:55:33.067Z,15.0
2018-05-10T10:56:34.741Z,15.7
2018-05-10T10:57:36.424Z,16.2
2018-05-10T10:58:38.154Z,17.1
2018-05-10T10:59:39.813Z,17.1
2018-05-10T11:00:41.485Z,16.9
2018-05-10T11:01:43.185Z,16.6
2018-05-10T11:02:44.809Z,18.6
2018-05-10T11:03:46.483Z,18.4
2018-05-10T11:04:48.155Z,18.2
2018-05-10T11:05:49.814Z,17.5
2018-05-10T11:06:51.495Z,18.5
2018-05-10T11:07:53.187Z,17.4
2018-05-10T11:08:54.851Z,18.0
2018-05-10T11:09:56.517Z,17.0
2018-05-10T11:10:58.185Z,17.9
2018-05-10T11:11:59.859Z,17.6
2018-05-10T11:13:01.545Z,16.7
2018-05-10T11:14:03.258Z,17.3
2018-05-10T11:15:04.997Z,17.4
2018-05-10T11:16:06.599Z,17.4
2018-05-10T11:17:08.268Z,16.2
2018-05-10T11:18:09.932Z,16.7
2018-05-10T11:19:11.592Z,17.9
2018-05-10T11:20:13.270Z,17.4
2018-05-10T11:21:14.949Z,17.2
2018-05-10T11:22:16.614Z,16.7
2018-05-10T11:23:18.276Z,17.6
2018-05-10T11:24:19.956Z,17.2
2018-05-10T11:25:21.642Z,17.6
2018-05-10T11:26:23.312Z,17.8
2018-05-10T11:27:25.078Z,17.0
2018-05-10T11:28:26.675Z,17.9
2018-05-10T11:29:28.347Z,16.4
2018-05-10T11:30:30.011Z,16.7
2018-05-10T11:31:31.672Z,16.3
2018-05-10T11:32:33.340Z,17.6
2018-05-10T11:33:35.007Z,17.4
2018-05-10T11:34:36.935Z,16.9
2018-05-10T11:35:38.939Z,17.6
2018-05-10T11:36:40.626Z,16.4
2018-05-10T11:37:42.293Z,17.0
2018-05-10T11:38:43.970Z,17.8
2018-05-10T11:39:45.633Z,17.6
2018-05-10T11:40:47.326Z,18.8
2018-05-10T11:41:49.040Z,17.5
2018-05-10T11:42:51.347Z,17.9
2018-05-10T11:43:52.997Z,17.4
2018-05-10T11:44:54.671Z,18.4
2018-05-10T11:45:56.334Z,19.0
2018-05-10T11:46:57.999Z,18.2
2018-05-10T11:47:59.675Z,19.6
2018-05-10T11:49:01.334Z,19.9
2018-05-10T11:50:02.995Z,20.1
2018-05-10T11:51:04.671Z,20.4
2018-05-10T11:52:06.346Z,20.3
2018-05-10T11:53:08.017Z,20.5
2018-05-10T11:54:09.715Z,20.0
2018-05-10T11:55:11.373Z,20.2
2018-05-10T11:56:13.035Z,20.1
2018-05-10T11:57:14.709Z,20.6
2018-05-10T11:58:16.365Z,20.7
2018-05-10T11:59:18.043Z,21.5
2018-05-10T12:00:19.710Z,21.8
2018-05-10T12:01:21.368Z,20.2
2018-05-10T12:02:23.033Z,20.1
2018-05-10T12:03:24.700Z,21.3
2018-05-10T12:04:26.376Z,21.4
2018-05-10T12:05:28.391Z,20.8
2018-05-10T12:06:30.051Z,20.9
2018-05-10T12:07:31.725Z,21.3
2018-05-10T12:08:33.384Z,20.5
2018-05-10T12:09:35.042Z,19.8
2018-05-10T12:10:36.731Z,19.5
2018-05-10T12:11:38.391Z,20.6
2018-05-10T12:12:40.084Z,20.4
2018-05-10T12:13:41.755Z,20.9
2018-05-10T12:14:43.428Z,23.3
2018-05-10T12:15:45.107Z,21.1
2018-05-10T12:16:46.764Z,20.8
2018-05-10T12:17:48.432Z,20.9
2018-05-10T12:18:50.098Z,21.3
2018-05-10T12:19:51.765Z,21.4
2018-05-10T12:20:53.433Z,21.0
2018-05-10T12:21:55.100Z,19.7
2018-05-10T12:22:56.759Z,20.0
2018-05-10T12:23:58.424Z,19.5
2018-05-10T12:25:00.105Z,18.2
2018-05-10T12:26:01.777Z,18.3
2018-05-10T12:27:03.457Z,17.4
2018-05-10T12:28:05.120Z,17.2
2018-05-10T12:29:06.782Z,17.0
2018-05-10T12:30:08.436Z,18.6
2018-05-10T12:31:10.103Z,18.0
2018-05-10T12:32:11.771Z,17.6
2018-05-10T12:33:13.451Z,17.0
2018-05-10T12:34:15.120Z,14.6
2018-05-10T12:35:16.789Z,14.0
2018-05-10T12:36:18.456Z,14.3
2018-05-10T12:37:20.120Z,14.8
2018-05-10T12:38:21.782Z,14.5
2018-05-10T12:39:23.469Z,15.0
2018-05-10T12:40:25.140Z,15.1
2018-05-10T12:41:26.802Z,15.6
2018-05-10T12:42:28.468Z,15.2
2018-05-10T12:43:30.142Z,15.0
2018-05-10T12:44:31.812Z,14.3
2018-05-10T12:45:33.552Z,15.6
2018-05-10T12:46:35.219Z,16.6
2018-05-10T12:47:36.879Z,17.6
2018-05-10T12:48:38.640Z,18.1
2018-05-10T12:49:40.181Z,19.6
2018-05-10T12:50:41.849Z,19.6
2018-05-10T12:51:43.500Z,20.7
2018-05-10T12:52:45.172Z,21.0
2018-05-10T12:53:46.878Z,21.0
2018-05-10T12:54:48.543Z,21.0
2018-05-10T12:55:50.216Z,21.5
2018-05-10T12:56:52.014Z,20.5
2018-05-10T12:57:54.241Z,21.2
2018-05-10T12:58:55.914Z,22.4
2018-05-10T12:59:57.952Z,21.5
2018-05-10T13:01:00.450Z,21.8
2018-05-10T13:02:03.360Z,21.8
2018-05-10T13:03:05.149Z,21.0
2018-05-10T13:04:07.370Z,20.4
2018-05-10T13:05:09.064Z,19.5
2018-05-10T13:06:10.728Z,19.4
2018-05-10T13:07:13.195Z,18.2
2018-05-10T13:08:14.926Z,17.9
2018-05-10T13:09:16.485Z,16.3
2018-05-10T13:10:18.494Z,13.0
2018-05-10T13:11:20.369Z,12.5
2018-05-10T13:12:22.038Z,11.1
2018-05-10T13:13:24.601Z,10.2
2018-05-10T13:14:26.226Z,9.2
2018-05-10T13:15:28.080Z,9.9
2018-05-10T13:16:30.685Z,9.7
2018-05-10T13:17:32.525Z,9.3
2018-05-10T13:18:34.185Z,8.6
2018-05-10T13:19:36.222Z,9.8
2018-05-10T13:20:37.873Z,9.2
2018-05-10T13:21:39.910Z,10.4
2018-05-10T13:22:41.663Z,9.5
2018-05-10T13:23:43.343Z,9.9
2018-05-10T13:24:45.412Z,10.5
2018-05-10T13:25:47.142Z,10.2
2018-05-10T13:26:49.570Z,10.6
2018-05-10T13:27:51.225Z,11.0
2018-05-10T13:28:54.148Z,10.6
2018-05-10T13:29:55.773Z,11.0
2018-05-10T13:30:57.831Z,10.1
2018-05-10T13:31:59.511Z,10.8
2018-05-10T13:33:01.713Z,10.3
2018-05-10T13:34:03.386Z,11.2
2018-05-10T13:35:05.056Z,10.8
2018-05-10T13:36:06.723Z,11.4
2018-05-10T13:37:08.388Z,10.1
2018-05-10T13:38:10.064Z,10.8
2018-05-10T13:39:11.745Z,10.3
2018-05-10T13:40:16.535Z,10.2
2018-05-10T13:41:18.099Z,10.1
2018-05-10T13:42:19.914Z,9.3
2018-05-10T13:43:21.568Z,9.0
2018-05-10T13:44:24.859Z,8.2
2018-05-10T13:45:26.542Z,7.5
2018-05-10T13:46:28.201Z,8.3
2018-05-10T13:47:29.929Z,7.3
2018-05-10T13:48:31.519Z,7.3
2018-05-10T13:49:33.180Z,7.8
2018-05-10T13:50:34.853Z,7.2
2018-05-10T13:51:36.581Z,7.4
2018-05-10T13:52:38.204Z,7.6
2018-05-10T13:53:39.876Z,6.7
2018-05-10T13:54:41.544Z,7.4
2018-05-10T13:55:43.216Z,7.2
2018-05-10T14:01:59.465Z,6.5
2018-05-10T14:03:01.166Z,6.6
2018-05-10T14:04:53.073Z,5.5
2018-05-10T14:05:54.724Z,6.1
2018-05-10T14:06:56.387Z,5.9
2018-05-10T14:07:58.055Z,6.3
2018-05-10T14:08:59.722Z,6.2
2018-05-10T14:10:01.393Z,6.7